createdAt,value
2018-04-07T00:01:00.349Z,15.70
2018-04-07T00:03:27.140Z,15.70
2018-04-07T00:05:54.581Z,15.70
2018-04-07T00:08:21.271Z,15.60
2018-04-07T00:10:47.961Z,15.60
2018-04-07T00:13:15.380Z,15.60
2018-04-07T00:15:42.053Z,15.60
2018-04-07T00:18:08.723Z,15.60
2018-04-07T00:20:35.437Z,15.60
2018-04-07T00:23:02.880Z,15.60
2018-04-07T00:25:29.573Z,15.60
2018-04-07T00:27:56.268Z,15.60
2018-04-07T00:30:23.701Z,15.60
2018-04-07T00:32:50.388Z,15.60
2018-04-07T00:35:17.064Z,15.60
2018-04-07T00:37:43.749Z,15.60
2018-04-07T00:40:11.212Z,15.60
2018-04-07T00:42:37.946Z,15.60
2018-04-07T00:45:05.366Z,15.60
2018-04-07T00:47:32.086Z,15.60
2018-04-07T00:49:58.701Z,15.60
2018-04-07T00:52:25.665Z,15.60
2018-04-07T00:54:52.333Z,15.50
2018-04-07T00:57:18.986Z,15.60
2018-04-07T00:59:45.613Z,15.50
2018-04-07T01:02:12.216Z,15.50
2018-04-07T01:04:38.881Z,15.50
2018-04-07T01:07:05.496Z,15.50
2018-04-07T01:09:32.129Z,15.50
2018-04-07T01:11:58.785Z,15.50
2018-04-07T01:14:25.468Z,15.50
2018-04-07T01:16:52.083Z,15.60
2018-04-07T01:19:19.444Z,15.60
2018-04-07T01:21:46.802Z,15.60
2018-04-07T01:24:14.164Z,15.60
2018-04-07T01:26:41.543Z,15.60
2018-04-07T01:29:08.194Z,15.60
2018-04-07T01:31:34.806Z,15.60
2018-04-07T01:34:01.414Z,15.60
2018-04-07T01:36:28.763Z,15.60
2018-04-07T01:38:56.116Z,15.60
2018-04-07T01:41:23.473Z,15.60
2018-04-07T01:43:50.848Z,15.60
2018-04-07T01:46:17.473Z,15.60
2018-04-07T01:48:44.823Z,15.60
2018-04-07T01:51:12.166Z,15.60
2018-04-07T01:53:38.828Z,15.60
2018-04-07T01:56:05.440Z,15.50
2018-04-07T01:58:32.074Z,15.50
2018-04-07T02:00:58.701Z,15.50
2018-04-07T02:03:25.315Z,15.50
2018-04-07T02:05:52.005Z,15.50
2018-04-07T02:08:19.355Z,15.60
2018-04-07T02:10:46.723Z,15.50
2018-04-07T02:13:13.338Z,15.50
2018-04-07T02:15:40.683Z,15.50
2018-04-07T02:18:07.303Z,15.50
2018-04-07T02:20:33.928Z,15.50
2018-04-07T02:23:00.588Z,15.60
2018-04-07T02:25:27.256Z,15.60
2018-04-07T02:27:53.933Z,15.60
2018-04-07T02:30:21.357Z,15.50
2018-04-07T02:32:48.038Z,15.50
2018-04-07T02:35:14.704Z,15.50
2018-04-07T02:37:42.114Z,15.50
2018-04-07T02:40:08.777Z,15.50
2018-04-07T02:42:35.494Z,15.50
2018-04-07T02:45:02.149Z,15.50
2018-04-07T02:47:28.864Z,15.50
2018-04-07T02:49:55.544Z,15.50
2018-04-07T02:52:22.231Z,15.50
2018-04-07T02:54:49.004Z,15.50
2018-04-07T02:57:15.680Z,15.50
2018-04-07T02:59:43.104Z,15.50
2018-04-07T03:02:09.821Z,15.40
2018-04-07T03:04:36.501Z,15.40
2018-04-07T03:07:03.921Z,15.40
2018-04-07T03:09:30.616Z,15.40
2018-04-07T03:11:57.283Z,15.40
2018-04-07T03:14:23.942Z,15.40
2018-04-07T03:16:50.608Z,15.40
2018-04-07T03:19:24.980Z,15.40
2018-04-07T03:21:51.663Z,15.40
2018-04-07T03:24:19.085Z,15.40
2018-04-07T03:26:45.864Z,15.40
2018-04-07T03:29:13.274Z,15.40
2018-04-07T03:31:39.938Z,15.30
2018-04-07T03:34:06.700Z,15.30
2018-04-07T03:36:33.386Z,15.30
2018-04-07T03:39:00.046Z,15.30
2018-04-07T03:41:26.697Z,15.30
2018-04-07T03:43:53.369Z,15.30
2018-04-07T03:46:20.088Z,15.30
2018-04-07T03:48:47.541Z,15.30
2018-04-07T03:51:15.001Z,15.20
2018-04-07T03:53:42.413Z,15.30
2018-04-07T03:56:09.084Z,15.20
2018-04-07T03:58:36.506Z,15.20
2018-04-07T04:01:03.189Z,15.20
2018-04-07T04:03:30.648Z,15.20
2018-04-07T04:05:58.090Z,15.20
2018-04-07T04:08:25.514Z,15.20
2018-04-07T04:10:52.183Z,15.20
2018-04-07T04:13:19.616Z,15.20
2018-04-07T04:15:46.293Z,15.20
2018-04-07T04:18:12.961Z,15.10
2018-04-07T04:20:39.630Z,15.20
2018-04-07T04:23:06.324Z,15.20
2018-04-07T04:25:33.001Z,15.20
2018-04-07T04:27:59.686Z,15.20
2018-04-07T04:30:26.381Z,15.20
2018-04-07T04:32:53.056Z,15.20
2018-04-07T04:35:19.741Z,15.10
2018-04-07T04:37:46.420Z,15.10
2018-04-07T04:40:13.828Z,15.10
2018-04-07T04:42:40.498Z,15.10
2018-04-07T04:45:07.183Z,15.10
2018-04-07T04:47:33.851Z,15.10
2018-04-07T04:50:00.528Z,15.10
2018-04-07T04:52:28.001Z,15.10
2018-04-07T04:54:54.668Z,15.10
2018-04-07T04:57:21.343Z,15.10
2018-04-07T04:59:48.033Z,15.10
2018-04-07T05:02:14.688Z,15.10
2018-04-07T05:04:41.377Z,15.10
2018-04-07T05:07:08.785Z,15.10
2018-04-07T05:09:35.478Z,15.10
2018-04-07T05:12:02.876Z,15.10
2018-04-07T05:14:29.546Z,15.10
2018-04-07T05:16:56.208Z,15.10
2018-04-07T05:19:22.865Z,15.10
2018-04-07T05:21:49.543Z,15.10
2018-04-07T05:24:16.243Z,15.20
2018-04-07T05:26:42.913Z,15.20
2018-04-07T05:29:09.603Z,15.20
2018-04-07T05:31:36.333Z,15.20
2018-04-07T05:34:03.813Z,15.20
2018-04-07T05:36:30.516Z,15.20
2018-04-07T05:38:57.945Z,15.30
2018-04-07T05:41:26.115Z,15.20
2018-04-07T05:43:52.801Z,15.20
2018-04-07T05:46:20.268Z,15.30
2018-04-07T05:48:46.975Z,15.30
2018-04-07T05:51:14.385Z,15.30
2018-04-07T05:53:41.068Z,15.30
2018-04-07T05:56:08.531Z,15.30
2018-04-07T05:58:35.976Z,15.30
2018-04-07T06:01:02.646Z,15.30
2018-04-07T06:03:29.332Z,15.30
2018-04-07T06:05:57.518Z,15.30
2018-04-07T06:08:24.193Z,15.30
2018-04-07T06:10:50.900Z,15.30
2018-04-07T06:13:17.573Z,15.30
2018-04-07T06:15:44.305Z,15.30
2018-04-07T06:18:11.006Z,15.30
2018-04-07T06:20:39.347Z,15.40
2018-04-07T06:23:06.019Z,15.40
2018-04-07T06:25:32.714Z,15.40
2018-04-07T06:27:59.396Z,15.40
2018-04-07T06:30:26.096Z,15.40
2018-04-07T06:32:53.518Z,15.40
2018-04-07T06:35:20.966Z,15.40
2018-04-07T06:37:48.383Z,15.40
2018-04-07T06:40:15.078Z,15.40
2018-04-07T06:42:41.800Z,15.50
2018-04-07T06:45:09.233Z,15.40
2018-04-07T06:47:35.913Z,15.40
2018-04-07T06:50:02.733Z,15.40
2018-04-07T06:52:30.168Z,15.50
2018-04-07T06:54:56.837Z,15.50
2018-04-07T06:57:24.265Z,15.50
2018-04-07T06:59:51.718Z,15.50
2018-04-07T07:02:18.428Z,15.50
2018-04-07T07:04:45.156Z,15.50
2018-04-07T07:07:11.834Z,15.50
2018-04-07T07:09:39.288Z,15.50
2018-04-07T07:12:05.999Z,15.50
2018-04-07T07:14:32.668Z,15.50
2018-04-07T07:16:59.392Z,15.50
2018-04-07T07:19:26.067Z,15.60
2018-04-07T07:21:53.548Z,15.60
2018-04-07T07:24:20.345Z,15.50
2018-04-07T07:26:47.080Z,15.60
2018-04-07T07:29:13.796Z,15.60
2018-04-07T07:31:40.534Z,15.60
2018-04-07T07:34:07.166Z,15.60
2018-04-07T07:36:33.802Z,15.60
2018-04-07T07:39:00.518Z,15.60
2018-04-07T07:41:27.156Z,15.60
2018-04-07T07:43:53.798Z,15.60
2018-04-07T07:46:20.428Z,15.70
2018-04-07T07:48:47.066Z,15.70
2018-04-07T07:51:13.732Z,15.70
2018-04-07T07:53:40.362Z,15.70
2018-04-07T07:56:06.985Z,15.70
2018-04-07T07:58:33.599Z,15.70
2018-04-07T08:01:00.960Z,15.70
2018-04-07T08:03:28.360Z,15.70
2018-04-07T08:05:54.991Z,15.70
2018-04-07T08:08:21.608Z,15.70
2018-04-07T08:10:48.276Z,15.70
2018-04-07T08:13:14.898Z,15.70
2018-04-07T08:15:41.520Z,15.70
2018-04-07T08:18:08.146Z,15.70
2018-04-07T08:20:34.770Z,15.70
2018-04-07T08:23:01.405Z,15.70
2018-04-07T08:25:28.773Z,15.70
2018-04-07T08:27:55.430Z,15.70
2018-04-07T08:30:22.057Z,15.70
2018-04-07T08:32:48.696Z,15.70
2018-04-07T08:35:15.318Z,15.70
2018-04-07T08:37:41.940Z,15.70
2018-04-07T08:40:09.297Z,15.70
2018-04-07T08:42:37.585Z,15.70
2018-04-07T08:45:04.206Z,15.70
2018-04-07T08:47:31.557Z,15.70
2018-04-07T08:49:58.907Z,15.80
2018-04-07T08:52:26.258Z,15.70
2018-04-07T08:54:53.615Z,15.80
2018-04-07T08:57:20.993Z,15.80
2018-04-07T08:59:47.745Z,15.80
2018-04-07T09:02:14.385Z,15.80
2018-04-07T09:04:41.022Z,15.70
2018-04-07T09:07:07.638Z,15.80
2018-04-07T09:09:34.253Z,15.80
2018-04-07T09:12:01.613Z,15.80
2018-04-07T09:14:28.970Z,15.80
2018-04-07T09:16:56.325Z,15.80
2018-04-07T09:19:23.784Z,15.80
2018-04-07T09:21:50.385Z,15.80
2018-04-07T09:24:17.001Z,15.80
2018-04-07T09:26:43.613Z,15.80
2018-04-07T09:29:10.258Z,15.80
2018-04-07T09:31:36.880Z,15.90
2018-04-07T09:34:03.520Z,15.80
2018-04-07T09:36:30.196Z,15.80
2018-04-07T09:38:56.817Z,15.90
2018-04-07T09:41:23.573Z,15.80
2018-04-07T09:43:50.227Z,15.90
2018-04-07T09:46:16.881Z,15.90
2018-04-07T09:48:44.236Z,15.90
2018-04-07T09:51:11.638Z,15.90
2018-04-07T09:53:38.275Z,15.90
2018-04-07T09:56:04.885Z,15.90
2018-04-07T09:58:31.498Z,16.00
2018-04-07T10:01:00.714Z,16.00
2018-04-07T10:03:28.088Z,16.00
2018-04-07T10:05:54.728Z,16.00
2018-04-07T10:08:21.365Z,16.00
2018-04-07T10:10:47.998Z,16.00
2018-04-07T10:13:14.632Z,16.00
2018-04-07T10:15:41.373Z,16.10
2018-04-07T10:18:08.053Z,16.00
2018-04-07T10:20:34.830Z,16.10
2018-04-07T10:23:01.429Z,16.10
2018-04-07T10:25:28.092Z,16.10
2018-04-07T10:27:55.545Z,16.10
2018-04-07T10:30:22.905Z,16.20
2018-04-07T10:32:50.303Z,16.20
2018-04-07T10:35:16.945Z,16.20
2018-04-07T10:37:43.556Z,16.20
2018-04-07T10:40:10.176Z,16.20
2018-04-07T10:42:37.601Z,16.20
2018-04-07T10:45:04.216Z,16.20
2018-04-07T10:47:30.861Z,16.30
2018-04-07T10:49:57.485Z,16.20
2018-04-07T10:52:24.141Z,16.20
2018-04-07T10:54:50.776Z,16.20
2018-04-07T10:57:17.386Z,16.20
2018-04-07T10:59:44.060Z,16.20
2018-04-07T11:02:10.686Z,16.20
2018-04-07T11:04:37.326Z,16.20
2018-04-07T11:07:03.940Z,16.20
2018-04-07T11:09:30.588Z,16.20
2018-04-07T11:11:57.206Z,16.20
2018-04-07T11:14:23.826Z,16.20
2018-04-07T11:16:50.453Z,16.20
2018-04-07T11:19:17.836Z,16.20
2018-04-07T11:21:44.511Z,16.20
2018-04-07T11:24:11.138Z,16.30
2018-04-07T11:26:38.578Z,16.30
2018-04-07T11:29:05.250Z,16.30
2018-04-07T11:31:31.873Z,16.30
2018-04-07T11:33:58.523Z,16.30
2018-04-07T11:36:25.161Z,16.40
2018-04-07T11:38:51.798Z,16.40
2018-04-07T11:41:18.446Z,16.40
2018-04-07T11:43:45.846Z,16.50
2018-04-07T11:46:12.476Z,16.50
2018-04-07T11:48:39.116Z,16.60
2018-04-07T11:51:06.257Z,16.60
2018-04-07T11:53:32.887Z,16.60
2018-04-07T11:55:59.846Z,16.60
2018-04-07T11:58:26.470Z,16.60
2018-04-07T12:00:53.108Z,16.60
2018-04-07T12:03:19.767Z,16.60
2018-04-07T12:05:46.400Z,16.60
2018-04-07T12:08:13.143Z,16.60
2018-04-07T12:10:39.768Z,16.60
2018-04-07T12:13:06.416Z,16.60
2018-04-07T12:15:33.074Z,16.60
2018-04-07T12:17:59.728Z,16.60
2018-04-07T12:20:27.835Z,16.60
2018-04-07T12:22:54.451Z,16.60
2018-04-07T12:25:21.838Z,16.60
2018-04-07T12:27:48.543Z,16.60
2018-04-07T12:30:15.905Z,16.60
2018-04-07T12:32:43.353Z,16.60
2018-04-07T12:35:10.806Z,16.60
2018-04-07T12:37:38.197Z,16.60
2018-04-07T12:40:04.846Z,16.60
2018-04-07T12:42:31.516Z,16.70
2018-04-07T12:44:58.180Z,16.60
2018-04-07T12:47:25.673Z,16.60
2018-04-07T12:49:53.137Z,16.60
2018-04-07T12:52:19.785Z,16.70
2018-04-07T12:54:46.401Z,16.70
2018-04-07T12:57:13.021Z,16.70
2018-04-07T12:59:39.713Z,16.70
2018-04-07T13:02:06.341Z,16.70
2018-04-07T13:04:33.026Z,16.70
2018-04-07T13:07:00.431Z,16.70
2018-04-07T13:09:27.058Z,16.70
2018-04-07T13:11:53.675Z,16.70
2018-04-07T13:14:20.377Z,16.70
2018-04-07T13:16:47.780Z,16.70
2018-04-07T13:19:14.446Z,16.70
2018-04-07T13:21:42.160Z,16.70
2018-04-07T13:24:08.788Z,16.70
2018-04-07T13:26:36.192Z,16.70
2018-04-07T13:29:02.877Z,16.70
2018-04-07T13:31:30.238Z,16.70
2018-04-07T13:33:56.920Z,16.70
2018-04-07T13:36:23.635Z,16.70
2018-04-07T13:38:51.051Z,16.70
2018-04-07T13:41:18.405Z,16.70
2018-04-07T13:43:45.793Z,16.70
2018-04-07T13:46:12.500Z,16.70
2018-04-07T13:48:39.878Z,16.70
2018-04-07T13:51:07.327Z,16.70
2018-04-07T13:53:34.708Z,16.70
2018-04-07T13:56:01.325Z,16.70
2018-04-07T13:58:27.945Z,16.70
2018-04-07T15:45:23.678Z,23.90
2018-04-07T15:47:50.340Z,23.80
2018-04-07T15:50:16.978Z,24.10
2018-04-07T15:52:43.657Z,23.90
2018-04-07T15:55:10.844Z,23.60
2018-04-07T15:57:37.497Z,23.50
2018-04-07T16:00:05.093Z,23.50
2018-04-07T16:02:31.777Z,23.50
2018-04-07T16:04:58.485Z,23.50
2018-04-07T16:07:25.220Z,23.50
2018-04-07T16:09:53.218Z,23.20
2018-04-07T16:12:19.930Z,23.00
2018-04-07T16:14:46.618Z,22.80
2018-04-07T16:17:13.425Z,22.30
2018-04-07T16:19:40.070Z,21.80
2018-04-07T16:22:06.736Z,21.50
2018-04-07T16:24:33.405Z,21.20
2018-04-07T16:27:00.056Z,21.00
2018-04-07T16:29:26.789Z,20.70
2018-04-07T16:31:53.436Z,20.40
2018-04-07T16:34:20.113Z,20.30
2018-04-07T16:36:46.755Z,20.20
2018-04-07T16:39:13.418Z,20.10
2018-04-07T16:41:40.801Z,19.90
2018-04-07T16:44:07.515Z,19.90
2018-04-07T16:46:34.986Z,19.70
2018-04-07T16:49:01.633Z,19.70
2018-04-07T16:51:28.281Z,19.70
2018-04-07T16:53:54.932Z,19.60
2018-04-07T16:56:21.598Z,19.60
2018-04-07T16:58:48.246Z,19.40
2018-04-07T17:01:14.898Z,19.30
2018-04-07T17:03:42.342Z,19.10
2018-04-07T17:06:08.981Z,19.10
2018-04-07T17:08:35.616Z,19.00
2018-04-07T17:11:02.261Z,18.80
2018-04-07T17:13:29.653Z,18.70
2018-04-07T17:15:56.323Z,18.70
2018-04-07T17:18:22.973Z,18.60
2018-04-07T17:20:49.666Z,18.50
2018-04-07T17:23:16.326Z,18.40
2018-04-07T17:25:43.006Z,18.40
2018-04-07T17:28:10.406Z,18.20
2018-04-07T17:30:37.075Z,18.20
2018-04-07T17:33:03.760Z,18.00
2018-04-07T17:35:30.408Z,17.80
2018-04-07T17:37:57.928Z,17.60
2018-04-07T17:40:25.357Z,17.30
2018-04-07T17:42:52.028Z,17.30
2018-04-07T17:45:19.466Z,17.10
2018-04-07T17:47:46.120Z,17.10
2018-04-07T17:50:13.606Z,16.80
2018-04-07T17:52:40.285Z,16.80
2018-04-07T17:55:07.021Z,16.70
2018-04-07T17:57:33.706Z,16.50
2018-04-07T18:00:00.368Z,16.50
2018-04-07T18:02:27.041Z,16.40
2018-04-07T18:04:53.747Z,16.30
2018-04-07T18:07:20.448Z,16.10
2018-04-07T18:09:47.154Z,15.90
2018-04-07T18:12:13.811Z,15.70
2018-04-07T18:14:40.466Z,15.50
2018-04-07T18:17:07.860Z,15.30
2018-04-07T18:19:34.505Z,15.30
2018-04-07T18:22:01.181Z,15.30
2018-04-07T18:24:27.840Z,15.20
2018-04-07T18:26:54.499Z,15.00
2018-04-07T18:29:21.148Z,14.90
2018-04-07T18:31:47.781Z,14.80
2018-04-07T18:34:14.441Z,14.70
2018-04-07T18:36:41.100Z,14.60
2018-04-07T18:39:07.774Z,14.60
2018-04-07T18:41:34.479Z,14.70
2018-04-07T18:44:01.143Z,14.60
2018-04-07T18:46:27.848Z,14.60
2018-04-07T18:48:54.580Z,14.50
2018-04-07T18:51:21.250Z,14.40
2018-04-07T18:53:47.948Z,14.40
2018-04-07T18:56:14.609Z,14.40
2018-04-07T18:58:41.334Z,14.60
2018-04-07T19:01:08.081Z,14.60
2018-04-07T19:03:34.736Z,14.70
2018-04-07T19:06:02.150Z,14.70
2018-04-07T19:08:28.858Z,14.80
2018-04-07T19:10:56.593Z,14.80
2018-04-07T19:13:23.993Z,15.00
2018-04-07T19:15:50.661Z,15.00
2018-04-07T19:18:17.480Z,14.90
2018-04-07T19:20:44.193Z,14.50
2018-04-07T19:23:10.886Z,14.10
2018-04-07T19:25:37.562Z,13.80
2018-04-07T19:28:05.068Z,13.70
2018-04-07T19:30:31.794Z,13.60
2018-04-07T19:32:58.508Z,13.70
2018-04-07T19:35:25.211Z,13.70
2018-04-07T19:37:52.665Z,13.40
2018-04-07T19:40:20.150Z,13.10
2018-04-07T19:42:50.229Z,13.10
2018-04-07T19:45:16.894Z,12.90
2018-04-07T19:47:44.281Z,12.90
2018-04-07T19:50:10.924Z,12.80
2018-04-07T19:52:38.322Z,12.70
2018-04-07T19:55:05.782Z,12.60
2018-04-07T19:57:33.231Z,12.30
2018-04-07T19:59:59.899Z,12.30
2018-04-07T20:02:26.588Z,12.20
2018-04-07T20:04:53.234Z,12.10
2018-04-07T20:07:19.906Z,12.00
2018-04-07T20:09:47.371Z,11.80
2018-04-07T20:12:14.084Z,11.80
2018-04-07T20:14:40.754Z,11.60
2018-04-07T20:17:07.456Z,11.50
2018-04-07T20:19:34.174Z,11.40
2018-04-07T20:22:00.821Z,11.30
2018-04-07T20:24:27.469Z,11.30
2018-04-07T20:26:54.166Z,11.30
2018-04-07T20:29:20.863Z,11.20
2018-04-07T20:31:48.296Z,11.10
2018-04-07T20:34:14.978Z,11.10
2018-04-07T20:36:41.614Z,11.10
2018-04-07T20:39:08.256Z,11.00
2018-04-07T20:41:34.906Z,11.00
2018-04-07T20:44:01.601Z,10.90
2018-04-07T20:46:29.028Z,10.70
2018-04-07T20:48:55.727Z,10.70
2018-04-07T20:51:22.402Z,10.70
2018-04-07T20:53:49.053Z,10.70
2018-04-07T20:56:15.692Z,10.70
2018-04-07T20:58:42.349Z,10.70
2018-04-07T21:01:09.797Z,10.80
2018-04-07T21:03:37.232Z,10.80
2018-04-07T21:06:03.889Z,10.80
2018-04-07T21:08:31.315Z,10.60
2018-04-07T21:10:58.017Z,10.60
2018-04-07T21:13:24.707Z,10.60
2018-04-07T21:15:51.388Z,10.60
2018-04-07T21:18:18.409Z,10.50
2018-04-07T21:20:45.807Z,10.30
2018-04-07T21:23:12.501Z,10.30
2018-04-07T21:25:39.894Z,10.10
2018-04-07T21:28:06.596Z,10.00
2018-04-07T21:30:33.317Z,10.00
2018-04-07T21:33:00.016Z,10.00
2018-04-07T21:35:26.735Z,9.90
2018-04-07T21:37:53.441Z,9.90
2018-04-07T21:40:20.106Z,9.90
2018-04-07T21:42:46.797Z,9.80
2018-04-07T21:45:13.481Z,9.80
2018-04-07T21:47:40.128Z,9.80
2018-04-07T21:50:06.854Z,9.80
2018-04-07T21:52:33.549Z,9.90
2018-04-07T21:55:00.201Z,9.90
2018-04-07T21:57:26.921Z,9.90
2018-04-07T21:59:53.579Z,9.90
2018-04-07T22:02:20.293Z,9.90
2018-04-07T22:04:47.026Z,9.90
2018-04-07T22:07:13.688Z,10.00
2018-04-07T22:09:40.411Z,10.00
2018-04-07T22:12:07.108Z,10.00
2018-04-07T22:14:33.766Z,10.00
2018-04-07T22:17:00.521Z,10.00
2018-04-07T22:19:27.293Z,10.00
2018-04-07T22:21:54.797Z,10.20
2018-04-07T22:24:21.600Z,10.20
2018-04-07T22:26:49.041Z,10.60
2018-04-07T22:29:15.784Z,10.60
2018-04-07T22:31:42.601Z,10.70
2018-04-07T22:34:09.324Z,10.80
2018-04-07T22:36:36.046Z,10.90
2018-04-07T22:39:02.956Z,10.70
2018-04-07T22:41:30.366Z,10.20
2018-04-07T22:43:57.014Z,10.20
2018-04-07T22:46:23.713Z,10.00
2018-04-07T22:48:50.423Z,9.80
2018-04-07T22:51:17.917Z,9.40
2018-04-07T22:53:45.327Z,9.30
2018-04-07T22:56:12.024Z,9.30
2018-04-07T22:58:38.771Z,9.20
2018-04-07T23:01:05.509Z,9.20
2018-04-07T23:03:32.206Z,9.20
2018-04-07T23:05:58.916Z,9.30
2018-04-07T23:08:25.623Z,9.40
2018-04-07T23:10:52.313Z,9.30
2018-04-07T23:13:19.189Z,9.20
2018-04-07T23:15:45.981Z,9.20
2018-04-07T23:18:12.693Z,9.20
2018-04-07T23:20:39.403Z,9.20
2018-04-07T23:23:06.953Z,9.20
2018-04-07T23:25:33.654Z,9.20
2018-04-07T23:28:00.443Z,9.10
2018-04-07T23:30:27.154Z,8.90
2018-04-07T23:32:54.646Z,8.60
2018-04-07T23:35:21.366Z,8.50
2018-04-07T23:37:48.070Z,8.50
2018-04-07T23:40:14.766Z,8.40
2018-04-07T23:42:41.463Z,8.40
2018-04-07T23:45:08.964Z,8.50
2018-04-07T23:47:35.679Z,8.50
2018-04-07T23:50:02.434Z,8.50
2018-04-07T23:52:29.156Z,8.70
2018-04-07T23:54:55.867Z,8.80
2018-04-07T23:57:22.578Z,8.80
2018-04-07T23:59:49.305Z,8.80
